sensor_id;sensor_type;location;lat;lon;timestamp;P1;P2;P0
77699;PMS5003;66867;42.658;23.320;2023-02-22T00:00:00;55;43;
77699;PMS5003;66867;42.658;23.320;2023-02-22T00:01:00;50;43;
77699;PMS5003;66867;42.658;23.320;2023-02-22T00:02:00;50;43;
77699;PMS5003;66867;42.658;23.320;2023-02-22T00:03:00;50;43;
77699;PMS5003;66867;42.658;23.320;2023-02-22T00:04:02;51;44;
77699;PMS5003;66867;42.658;23.320;2023-02-22T00:05:00;52;44;
77699;PMS5003;66867;42.658;23.320;2023-02-22T00:06:02;50;41;
77699;PMS5003;66867;42.658;23.320;2023-02-22T00:07:00;53;44;
77699;PMS5003;66867;42.658;23.320;2023-02-22T00:08:00;45;39;
77699;PMS5003;66867;42.658;23.320;2023-02-22T00:09:00;51;42;
77699;PMS5003;66867;42.658;23.320;2023-02-22T00:10:00;47;39;
77699;PMS5003;66867;42.658;23.320;2023-02-22T00:11:04;48;40;
77699;PMS5003;66867;42.658;23.320;2023-02-22T00:12:00;46;39;
77699;PMS5003;66867;42.658;23.320;2023-02-22T00:13:00;46;39;
77699;PMS5003;66867;42.658;23.320;2023-02-22T00:14:00;40;36;
77699;PMS5003;66867;42.658;23.320;2023-02-22T00:15:00;48;40;
77699;PMS5003;66867;42.658;23.320;2023-02-22T00:16:01;45;39;
77699;PMS5003;66867;42.658;23.320;2023-02-22T00:17:00;43;38;
77699;PMS5003;66867;42.658;23.320;2023-02-22T00:18:01;46;40;
77699;PMS5003;66867;42.658;23.320;2023-02-22T00:19:00;43;37;
77699;PMS5003;66867;42.658;23.320;2023-02-22T00:20:01;37;35;
77699;PMS5003;66867;42.658;23.320;2023-02-22T00:21:00;40;36;
77699;PMS5003;66867;42.658;23.320;2023-02-22T00:22:00;39;36;
77699;PMS5003;66867;42.658;23.320;2023-02-22T00:23:00;37;33;
77699;PMS5003;66867;42.658;23.320;2023-02-22T00:24:00;38;36;
77699;PMS5003;66867;42.658;23.320;2023-02-22T00:25:00;40;37;
77699;PMS5003;66867;42.658;23.320;2023-02-22T00:26:00;34;33;
77699;PMS5003;66867;42.658;23.320;2023-02-22T00:27:00;39;36;
77699;PMS5003;66867;42.658;23.320;2023-02-22T00:28:00;30;30;
77699;PMS5003;66867;42.658;23.320;2023-02-22T00:29:00;37;33;
77699;PMS5003;66867;42.658;23.320;2023-02-22T00:30:00;32;31;
77699;PMS5003;66867;42.658;23.320;2023-02-22T00:31:00;30;29;
77699;PMS5003;66867;42.658;23.320;2023-02-22T00:32:00;37;36;
77699;PMS5003;66867;42.658;23.320;2023-02-22T00:33:01;30;29;
77699;PMS5003;66867;42.658;23.320;2023-02-22T00:34:00;34;33;
77699;PMS5003;66867;42.658;23.320;2023-02-22T00:35:00;33;32;
77699;PMS5003;66867;42.658;23.320;2023-02-22T00:36:00;31;31;
77699;PMS5003;66867;42.658;23.320;2023-02-22T00:37:00;28;28;
77699;PMS5003;66867;42.658;23.320;2023-02-22T00:38:01;34;33;
77699;PMS5003;66867;42.658;23.320;2023-02-22T00:39:00;33;33;
77699;PMS5003;66867;42.658;23.320;2023-02-22T00:40:00;38;34;
77699;PMS5003;66867;42.658;23.320;2023-02-22T00:41:00;33;32;
77699;PMS5003;66867;42.658;23.320;2023-02-22T00:42:00;38;34;
77699;PMS5003;66867;42.658;23.320;2023-02-22T00:43:02;32;30;
77699;PMS5003;66867;42.658;23.320;2023-02-22T00:44:00;29;28;
77699;PMS5003;66867;42.658;23.320;2023-02-22T00:45:00;32;32;
77699;PMS5003;66867;42.658;23.320;2023-02-22T00:46:00;29;28;
77699;PMS5003;66867;42.658;23.320;2023-02-22T00:47:00;31;30;
77699;PMS5003;66867;42.658;23.320;2023-02-22T00:48:02;37;34;
77699;PMS5003;66867;42.658;23.320;2023-02-22T00:49:00;31;30;
77699;PMS5003;66867;42.658;23.320;2023-02-22T00:50:00;31;29;
77699;PMS5003;66867;42.658;23.320;2023-02-22T00:51:00;31;30;
77699;PMS5003;66867;42.658;23.320;2023-02-22T00:52:00;33;33;
77699;PMS5003;66867;42.658;23.320;2023-02-22T00:53:02;40;36;
77699;PMS5003;66867;42.658;23.320;2023-02-22T00:54:00;31;31;
77699;PMS5003;66867;42.658;23.320;2023-02-22T00:55:01;36;34;
77699;PMS5003;66867;42.658;23.320;2023-02-22T00:56:00;35;33;
77699;PMS5003;66867;42.658;23.320;2023-02-22T00:57:01;33;32;
77699;PMS5003;66867;42.658;23.320;2023-02-22T00:58:01;36;33;
77699;PMS5003;66867;42.658;23.320;2023-02-22T00:59:00;35;31;
77699;PMS5003;66867;42.658;23.320;2023-02-22T01:00:05;37;33;
77699;PMS5003;66867;42.658;23.320;2023-02-22T01:01:00;30;29;
77699;PMS5003;66867;42.658;23.320;2023-02-22T01:02:00;37;35;
77699;PMS5003;66867;42.658;23.320;2023-02-22T01:03:00;34;31;
77699;PMS5003;66867;42.658;23.320;2023-02-22T01:04:00;36;34;
77699;PMS5003;66867;42.658;23.320;2023-02-22T01:05:00;42;37;
77699;PMS5003;66867;42.658;23.320;2023-02-22T01:06:00;37;35;
77699;PMS5003;66867;42.658;23.320;2023-02-22T01:07:00;38;36;
77699;PMS5003;66867;42.658;23.320;2023-02-22T01:08:01;34;32;
77699;PMS5003;66867;42.658;23.320;2023-02-22T01:09:01;37;32;
77699;PMS5003;66867;42.658;23.320;2023-02-22T01:10:01;37;36;
77699;PMS5003;66867;42.658;23.320;2023-02-22T01:11:00;35;33;
77699;PMS5003;66867;42.658;23.320;2023-02-22T01:12:00;43;36;
77699;PMS5003;66867;42.658;23.320;2023-02-22T01:13:01;42;37;
77699;PMS5003;66867;42.658;23.320;2023-02-22T01:14:00;39;33;
77699;PMS5003;66867;42.658;23.320;2023-02-22T01:15:01;42;35;
77699;PMS5003;66867;42.658;23.320;2023-02-22T01:16:00;40;36;
77699;PMS5003;66867;42.658;23.320;2023-02-22T01:17:00;39;36;
77699;PMS5003;66867;42.658;23.320;2023-02-22T01:18:00;39;35;
77699;PMS5003;66867;42.658;23.320;2023-02-22T01:19:00;43;37;
77699;PMS5003;66867;42.658;23.320;2023-02-22T01:20:00;42;37;
77699;PMS5003;66867;42.658;23.320;2023-02-22T01:21:01;37;35;
77699;PMS5003;66867;42.658;23.320;2023-02-22T01:22:00;44;37;
77699;PMS5003;66867;42.658;23.320;2023-02-22T01:23:01;42;37;
77699;PMS5003;66867;42.658;23.320;2023-02-22T01:24:00;44;38;
77699;PMS5003;66867;42.658;23.320;2023-02-22T01:25:00;37;35;
77699;PMS5003;66867;42.658;23.320;2023-02-22T01:26:00;37;36;
77699;PMS5003;66867;42.658;23.320;2023-02-22T01:27:00;38;36;
77699;PMS5003;66867;42.658;23.320;2023-02-22T01:28:01;43;39;
77699;PMS5003;66867;42.658;23.320;2023-02-22T01:29:00;41;36;
77699;PMS5003;66867;42.658;23.320;2023-02-22T01:30:01;38;35;
77699;PMS5003;66867;42.658;23.320;2023-02-22T01:31:00;37;35;
77699;PMS5003;66867;42.658;23.320;2023-02-22T01:32:00;39;35;
77699;PMS5003;66867;42.658;23.320;2023-02-22T01:33:03;35;34;
77699;PMS5003;66867;42.658;23.320;2023-02-22T01:34:00;41;34;
77699;PMS5003;66867;42.658;23.320;2023-02-22T01:35:01;37;34;
77699;PMS5003;66867;42.658;23.320;2023-02-22T01:36:00;40;36;
77699;PMS5003;66867;42.658;23.320;2023-02-22T01:37:00;37;35;
77699;PMS5003;66867;42.658;23.320;2023-02-22T01:38:00;40;36;
77699;PMS5003;66867;42.658;23.320;2023-02-22T01:39:00;40;36;
77699;PMS5003;66867;42.658;23.320;2023-02-22T01:40:01;41;36;
77699;PMS5003;66867;42.658;23.320;2023-02-22T01:41:00;37;36;
77699;PMS5003;66867;42.658;23.320;2023-02-22T01:42:00;42;38;
77699;PMS5003;66867;42.658;23.320;2023-02-22T01:43:13;41;36;
77699;PMS5003;66867;42.658;23.320;2023-02-22T01:44:18;34;33;
77699;PMS5003;66867;42.658;23.320;2023-02-22T01:47:02;38;34;
77699;PMS5003;66867;42.658;23.320;2023-02-22T01:49:02;36;34;
77699;PMS5003;66867;42.658;23.320;2023-02-22T01:50:00;35;34;
77699;PMS5003;66867;42.658;23.320;2023-02-22T01:51:09;31;31;
77699;PMS5003;66867;42.658;23.320;2023-02-22T01:52:02;33;33;
77699;PMS5003;66867;42.658;23.320;2023-02-22T01:53:00;35;34;
77699;PMS5003;66867;42.658;23.320;2023-02-22T01:54:06;37;35;
77699;PMS5003;66867;42.658;23.320;2023-02-22T01:55:00;38;37;
77699;PMS5003;66867;42.658;23.320;2023-02-22T01:56:01;41;38;
77699;PMS5003;66867;42.658;23.320;2023-02-22T01:57:03;41;37;
77699;PMS5003;66867;42.658;23.320;2023-02-22T01:58:02;35;33;
77699;PMS5003;66867;42.658;23.320;2023-02-22T01:59:02;39;35;
77699;PMS5003;66867;42.658;23.320;2023-02-22T02:00:06;38;34;
77699;PMS5003;66867;42.658;23.320;2023-02-22T02:01:00;35;34;
77699;PMS5003;66867;42.658;23.320;2023-02-22T02:02:00;35;34;
77699;PMS5003;66867;42.658;23.320;2023-02-22T02:03:04;32;31;
77699;PMS5003;66867;42.658;23.320;2023-02-22T02:04:03;35;34;
77699;PMS5003;66867;42.658;23.320;2023-02-22T02:05:00;38;37;
77699;PMS5003;66867;42.658;23.320;2023-02-22T02:06:03;33;30;
77699;PMS5003;66867;42.658;23.320;2023-02-22T02:07:04;38;37;
77699;PMS5003;66867;42.658;23.320;2023-02-22T02:08:07;36;35;
77699;PMS5003;66867;42.658;23.320;2023-02-22T02:09:08;37;34;
77699;PMS5003;66867;42.658;23.320;2023-02-22T02:10:05;41;37;
77699;PMS5003;66867;42.658;23.320;2023-02-22T02:11:02;33;33;
77699;PMS5003;66867;42.658;23.320;2023-02-22T02:12:01;38;34;
77699;PMS5003;66867;42.658;23.320;2023-02-22T02:13:00;41;36;
77699;PMS5003;66867;42.658;23.320;2023-02-22T02:14:00;39;35;
77699;PMS5003;66867;42.658;23.320;2023-02-22T02:16:00;43;38;
77699;PMS5003;66867;42.658;23.320;2023-02-22T02:17:00;38;36;
77699;PMS5003;66867;42.658;23.320;2023-02-22T02:18:04;37;35;
77699;PMS5003;66867;42.658;23.320;2023-02-22T02:19:00;35;33;
77699;PMS5003;66867;42.658;23.320;2023-02-22T02:20:13;40;37;
77699;PMS5003;66867;42.658;23.320;2023-02-22T02:23:15;36;34;
77699;PMS5003;66867;42.658;23.320;2023-02-22T02:24:22;33;32;
77699;PMS5003;66867;42.658;23.320;2023-02-22T02:33:03;35;32;
77699;PMS5003;66867;42.658;23.320;2023-02-22T02:34:03;31;31;
77699;PMS5003;66867;42.658;23.320;2023-02-22T02:36:03;35;32;
77699;PMS5003;66867;42.658;23.320;2023-02-22T02:39:12;34;31;
77699;PMS5003;66867;42.658;23.320;2023-02-22T02:40:14;30;29;
77699;PMS5003;66867;42.658;23.320;2023-02-22T02:42:02;34;30;
77699;PMS5003;66867;42.658;23.320;2023-02-22T02:43:08;32;30;
77699;PMS5003;66867;42.658;23.320;2023-02-22T02:44:04;32;30;
77699;PMS5003;66867;42.658;23.320;2023-02-22T02:45:04;29;29;
77699;PMS5003;66867;42.658;23.320;2023-02-22T02:48:02;31;28;
77699;PMS5003;66867;42.658;23.320;2023-02-22T02:49:06;31;30;
77699;PMS5003;66867;42.658;23.320;2023-02-22T02:50:09;29;28;
77699;PMS5003;66867;42.658;23.320;2023-02-22T02:51:02;62;49;
77699;PMS5003;66867;42.658;23.320;2023-02-22T02:52:02;45;40;
77699;PMS5003;66867;42.658;23.320;2023-02-22T02:53:04;41;38;
77699;PMS5003;66867;42.658;23.320;2023-02-22T02:54:01;43;38;
77699;PMS5003;66867;42.658;23.320;2023-02-22T02:55:02;43;38;
77699;PMS5003;66867;42.658;23.320;2023-02-22T02:56:00;44;37;
77699;PMS5003;66867;42.658;23.320;2023-02-22T02:57:01;36;35;
77699;PMS5003;66867;42.658;23.320;2023-02-22T02:58:00;37;34;
77699;PMS5003;66867;42.658;23.320;2023-02-22T02:59:00;29;25;
77699;PMS5003;66867;42.658;23.320;2023-02-22T03:00:00;30;30;
77699;PMS5003;66867;42.658;23.320;2023-02-22T03:01:02;29;28;
77699;PMS5003;66867;42.658;23.320;2023-02-22T03:04:07;28;28;
77699;PMS5003;66867;42.658;23.320;2023-02-22T03:05:10;30;28;
77699;PMS5003;66867;42.658;23.320;2023-02-22T03:07:10;30;29;
77699;PMS5003;66867;42.658;23.320;2023-02-22T03:08:13;29;28;
77699;PMS5003;66867;42.658;23.320;2023-02-22T03:09:12;30;27;
77699;PMS5003;66867;42.658;23.320;2023-02-22T03:10:15;30;30;
77699;PMS5003;66867;42.658;23.320;2023-02-22T03:11:14;43;36;
77699;PMS5003;66867;42.658;23.320;2023-02-22T03:13:08;43;38;
77699;PMS5003;66867;42.658;23.320;2023-02-22T03:15:08;36;34;
77699;PMS5003;66867;42.658;23.320;2023-02-22T03:16:05;35;34;
77699;PMS5003;66867;42.658;23.320;2023-02-22T03:17:05;31;29;
77699;PMS5003;66867;42.658;23.320;2023-02-22T03:18:03;31;29;
77699;PMS5003;66867;42.658;23.320;2023-02-22T03:19:08;30;30;
77699;PMS5003;66867;42.658;23.320;2023-02-22T03:20:05;31;30;
77699;PMS5003;66867;42.658;23.320;2023-02-22T03:22:09;28;27;
77699;PMS5003;66867;42.658;23.320;2023-02-22T03:23:06;32;31;
77699;PMS5003;66867;42.658;23.320;2023-02-22T03:25:04;26;24;
77699;PMS5003;66867;42.658;23.320;2023-02-22T03:26:04;29;27;
77699;PMS5003;66867;42.658;23.320;2023-02-22T03:27:03;26;24;
77699;PMS5003;66867;42.658;23.320;2023-02-22T03:28:05;32;30;
77699;PMS5003;66867;42.658;23.320;2023-02-22T03:29:02;31;31;
77699;PMS5003;66867;42.658;23.320;2023-02-22T03:30:04;23;23;
77699;PMS5003;66867;42.658;23.320;2023-02-22T03:31:03;32;30;
77699;PMS5003;66867;42.658;23.320;2023-02-22T03:32:03;29;28;
77699;PMS5003;66867;42.658;23.320;2023-02-22T03:33:05;33;30;
77699;PMS5003;66867;42.658;23.320;2023-02-22T03:34:06;28;28;
77699;PMS5003;66867;42.658;23.320;2023-02-22T03:35:04;32;29;
77699;PMS5003;66867;42.658;23.320;2023-02-22T03:36:04;27;27;
77699;PMS5003;66867;42.658;23.320;2023-02-22T03:37:05;30;28;
77699;PMS5003;66867;42.658;23.320;2023-02-22T03:38:03;29;29;
77699;PMS5003;66867;42.658;23.320;2023-02-22T03:39:01;42;38;
77699;PMS5003;66867;42.658;23.320;2023-02-22T03:40:02;67;53;
77699;PMS5003;66867;42.658;23.320;2023-02-22T03:41:01;66;54;
77699;PMS5003;66867;42.658;23.320;2023-02-22T03:42:05;75;59;
77699;PMS5003;66867;42.658;23.320;2023-02-22T03:43:05;67;54;
77699;PMS5003;66867;42.658;23.320;2023-02-22T03:44:07;59;49;
77699;PMS5003;66867;42.658;23.320;2023-02-22T03:45:02;55;45;
77699;PMS5003;66867;42.658;23.320;2023-02-22T03:46:00;47;41;
77699;PMS5003;66867;42.658;23.320;2023-02-22T03:47:04;52;44;
77699;PMS5003;66867;42.658;23.320;2023-02-22T03:48:07;55;47;
77699;PMS5003;66867;42.658;23.320;2023-02-22T03:49:04;56;47;
77699;PMS5003;66867;42.658;23.320;2023-02-22T03:51:00;65;54;
77699;PMS5003;66867;42.658;23.320;2023-02-22T03:52:01;58;49;
77699;PMS5003;66867;42.658;23.320;2023-02-22T03:53:00;55;46;
77699;PMS5003;66867;42.658;23.320;2023-02-22T03:54:01;58;48;
77699;PMS5003;66867;42.658;23.320;2023-02-22T03:55:01;54;44;
77699;PMS5003;66867;42.658;23.320;2023-02-22T03:56:01;55;46;
77699;PMS5003;66867;42.658;23.320;2023-02-22T03:57:08;54;45;
77699;PMS5003;66867;42.658;23.320;2023-02-22T03:58:04;48;41;
77699;PMS5003;66867;42.658;23.320;2023-02-22T03:59:08;54;46;
77699;PMS5003;66867;42.658;23.320;2023-02-22T04:00:01;58;48;
77699;PMS5003;66867;42.658;23.320;2023-02-22T04:01:00;55;46;
77699;PMS5003;66867;42.658;23.320;2023-02-22T04:02:00;46;42;
77699;PMS5003;66867;42.658;23.320;2023-02-22T04:03:01;43;39;
77699;PMS5003;66867;42.658;23.320;2023-02-22T04:04:01;39;36;
77699;PMS5003;66867;42.658;23.320;2023-02-22T04:05:00;41;38;
77699;PMS5003;66867;42.658;23.320;2023-02-22T04:06:00;41;38;
77699;PMS5003;66867;42.658;23.320;2023-02-22T04:07:00;53;44;
77699;PMS5003;66867;42.658;23.320;2023-02-22T04:08:00;53;44;
77699;PMS5003;66867;42.658;23.320;2023-02-22T04:09:00;52;42;
77699;PMS5003;66867;42.658;23.320;2023-02-22T04:10:00;52;44;
77699;PMS5003;66867;42.658;23.320;2023-02-22T04:11:00;50;40;
77699;PMS5003;66867;42.658;23.320;2023-02-22T04:12:00;53;46;
77699;PMS5003;66867;42.658;23.320;2023-02-22T04:13:00;57;47;
77699;PMS5003;66867;42.658;23.320;2023-02-22T04:14:00;55;46;
77699;PMS5003;66867;42.658;23.320;2023-02-22T04:15:00;53;43;
77699;PMS5003;66867;42.658;23.320;2023-02-22T04:16:00;51;42;
77699;PMS5003;66867;42.658;23.320;2023-02-22T04:17:00;53;45;
77699;PMS5003;66867;42.658;23.320;2023-02-22T04:18:00;48;41;
77699;PMS5003;66867;42.658;23.320;2023-02-22T04:19:00;41;39;
77699;PMS5003;66867;42.658;23.320;2023-02-22T04:20:00;41;38;
77699;PMS5003;66867;42.658;23.320;2023-02-22T04:21:00;38;34;
77699;PMS5003;66867;42.658;23.320;2023-02-22T04:22:00;36;34;
77699;PMS5003;66867;42.658;23.320;2023-02-22T04:23:00;41;36;
77699;PMS5003;66867;42.658;23.320;2023-02-22T04:24:00;33;33;
77699;PMS5003;66867;42.658;23.320;2023-02-22T04:25:00;38;35;
77699;PMS5003;66867;42.658;23.320;2023-02-22T04:26:00;39;36;
77699;PMS5003;66867;42.658;23.320;2023-02-22T04:27:00;39;38;
77699;PMS5003;66867;42.658;23.320;2023-02-22T04:28:00;40;36;
77699;PMS5003;66867;42.658;23.320;2023-02-22T04:29:00;35;35;
77699;PMS5003;66867;42.658;23.320;2023-02-22T04:30:00;42;39;
77699;PMS5003;66867;42.658;23.320;2023-02-22T04:31:00;39;34;
77699;PMS5003;66867;42.658;23.320;2023-02-22T04:32:00;39;37;
77699;PMS5003;66867;42.658;23.320;2023-02-22T04:33:00;35;34;
77699;PMS5003;66867;42.658;23.320;2023-02-22T04:34:00;40;38;
77699;PMS5003;66867;42.658;23.320;2023-02-22T04:35:00;38;35;
77699;PMS5003;66867;42.658;23.320;2023-02-22T04:36:00;35;33;
77699;PMS5003;66867;42.658;23.320;2023-02-22T04:37:00;39;37;
77699;PMS5003;66867;42.658;23.320;2023-02-22T04:38:00;41;35;
77699;PMS5003;66867;42.658;23.320;2023-02-22T04:39:00;37;34;
77699;PMS5003;66867;42.658;23.320;2023-02-22T04:40:01;38;37;
77699;PMS5003;66867;42.658;23.320;2023-02-22T04:41:00;37;35;
77699;PMS5003;66867;42.658;23.320;2023-02-22T04:42:00;33;33;
77699;PMS5003;66867;42.658;23.320;2023-02-22T04:43:00;35;32;
77699;PMS5003;66867;42.658;23.320;2023-02-22T04:44:00;34;33;
77699;PMS5003;66867;42.658;23.320;2023-02-22T04:45:01;40;36;
77699;PMS5003;66867;42.658;23.320;2023-02-22T04:46:00;37;33;
77699;PMS5003;66867;42.658;23.320;2023-02-22T04:47:00;34;33;
77699;PMS5003;66867;42.658;23.320;2023-02-22T04:48:00;33;32;
77699;PMS5003;66867;42.658;23.320;2023-02-22T04:49:00;33;33;
77699;PMS5003;66867;42.658;23.320;2023-02-22T04:50:00;33;29;
77699;PMS5003;66867;42.658;23.320;2023-02-22T04:51:00;35;34;
77699;PMS5003;66867;42.658;23.320;2023-02-22T04:52:00;35;34;
77699;PMS5003;66867;42.658;23.320;2023-02-22T04:53:00;38;34;
77699;PMS5003;66867;42.658;23.320;2023-02-22T04:54:00;34;32;
77699;PMS5003;66867;42.658;23.320;2023-02-22T04:55:00;33;31;
77699;PMS5003;66867;42.658;23.320;2023-02-22T04:56:00;39;36;
77699;PMS5003;66867;42.658;23.320;2023-02-22T04:57:00;32;32;
77699;PMS5003;66867;42.658;23.320;2023-02-22T04:58:00;33;31;
77699;PMS5003;66867;42.658;23.320;2023-02-22T04:59:00;32;31;
77699;PMS5003;66867;42.658;23.320;2023-02-22T05:00:00;31;29;
77699;PMS5003;66867;42.658;23.320;2023-02-22T05:01:00;30;30;
77699;PMS5003;66867;42.658;23.320;2023-02-22T05:02:00;34;33;
77699;PMS5003;66867;42.658;23.320;2023-02-22T05:03:00;33;32;
77699;PMS5003;66867;42.658;23.320;2023-02-22T05:04:02;34;33;
77699;PMS5003;66867;42.658;23.320;2023-02-22T05:05:00;37;34;
77699;PMS5003;66867;42.658;23.320;2023-02-22T05:06:00;34;34;
77699;PMS5003;66867;42.658;23.320;2023-02-22T05:07:00;32;32;
77699;PMS5003;66867;42.658;23.320;2023-02-22T05:08:00;33;32;
77699;PMS5003;66867;42.658;23.320;2023-02-22T05:09:00;38;36;
77699;PMS5003;66867;42.658;23.320;2023-02-22T05:10:00;36;32;
77699;PMS5003;66867;42.658;23.320;2023-02-22T05:11:00;37;36;
77699;PMS5003;66867;42.658;23.320;2023-02-22T05:12:00;40;38;
77699;PMS5003;66867;42.658;23.320;2023-02-22T05:13:00;40;36;
77699;PMS5003;66867;42.658;23.320;2023-02-22T05:14:00;43;38;
77699;PMS5003;66867;42.658;23.320;2023-02-22T05:15:00;44;39;
77699;PMS5003;66867;42.658;23.320;2023-02-22T05:16:00;38;37;
77699;PMS5003;66867;42.658;23.320;2023-02-22T05:17:00;42;38;
77699;PMS5003;66867;42.658;23.320;2023-02-22T05:18:00;39;33;
77699;PMS5003;66867;42.658;23.320;2023-02-22T05:19:00;40;37;
77699;PMS5003;66867;42.658;23.320;2023-02-22T05:20:01;38;37;
77699;PMS5003;66867;42.658;23.320;2023-02-22T05:21:00;43;36;
77699;PMS5003;66867;42.658;23.320;2023-02-22T05:22:00;44;40;
77699;PMS5003;66867;42.658;23.320;2023-02-22T05:23:01;42;39;
77699;PMS5003;66867;42.658;23.320;2023-02-22T05:24:00;40;37;
77699;PMS5003;66867;42.658;23.320;2023-02-22T05:25:00;40;37;
77699;PMS5003;66867;42.658;23.320;2023-02-22T05:26:00;39;37;
77699;PMS5003;66867;42.658;23.320;2023-02-22T05:27:00;42;36;
77699;PMS5003;66867;42.658;23.320;2023-02-22T05:28:04;42;36;
77699;PMS5003;66867;42.658;23.320;2023-02-22T05:29:00;40;37;
77699;PMS5003;66867;42.658;23.320;2023-02-22T05:30:00;45;38;
77699;PMS5003;66867;42.658;23.320;2023-02-22T05:31:00;46;38;
77699;PMS5003;66867;42.658;23.320;2023-02-22T05:32:00;46;40;
77699;PMS5003;66867;42.658;23.320;2023-02-22T05:33:01;45;40;
77699;PMS5003;66867;42.658;23.320;2023-02-22T05:34:00;52;44;
77699;PMS5003;66867;42.658;23.320;2023-02-22T05:35:00;52;44;
77699;PMS5003;66867;42.658;23.320;2023-02-22T05:36:00;48;40;
77699;PMS5003;66867;42.658;23.320;2023-02-22T05:37:00;42;37;
77699;PMS5003;66867;42.658;23.320;2023-02-22T05:38:00;45;40;
77699;PMS5003;66867;42.658;23.320;2023-02-22T05:39:00;49;41;
77699;PMS5003;66867;42.658;23.320;2023-02-22T05:40:00;47;39;
77699;PMS5003;66867;42.658;23.320;2023-02-22T05:41:00;50;40;
77699;PMS5003;66867;42.658;23.320;2023-02-22T05:42:00;52;41;
77699;PMS5003;66867;42.658;23.320;2023-02-22T05:43:00;47;41;
77699;PMS5003;66867;42.658;23.320;2023-02-22T05:44:00;54;45;
77699;PMS5003;66867;42.658;23.320;2023-02-22T05:45:00;54;42;
77699;PMS5003;66867;42.658;23.320;2023-02-22T05:46:00;56;45;
77699;PMS5003;66867;42.658;23.320;2023-02-22T05:47:00;47;41;
77699;PMS5003;66867;42.658;23.320;2023-02-22T05:48:01;51;43;
77699;PMS5003;66867;42.658;23.320;2023-02-22T05:49:00;51;39;
77699;PMS5003;66867;42.658;23.320;2023-02-22T05:50:00;53;43;
77699;PMS5003;66867;42.658;23.320;2023-02-22T05:51:00;50;42;
77699;PMS5003;66867;42.658;23.320;2023-02-22T05:52:00;52;43;
77699;PMS5003;66867;42.658;23.320;2023-02-22T05:53:00;50;42;
77699;PMS5003;66867;42.658;23.320;2023-02-22T05:54:00;46;39;
77699;PMS5003;66867;42.658;23.320;2023-02-22T05:55:00;55;43;
77699;PMS5003;66867;42.658;23.320;2023-02-22T05:56:00;46;40;
77699;PMS5003;66867;42.658;23.320;2023-02-22T05:57:00;53;43;
77699;PMS5003;66867;42.658;23.320;2023-02-22T05:58:00;55;43;
77699;PMS5003;66867;42.658;23.320;2023-02-22T05:59:00;55;46;
77699;PMS5003;66867;42.658;23.320;2023-02-22T06:00:02;56;46;
77699;PMS5003;66867;42.658;23.320;2023-02-22T06:01:00;53;44;
77699;PMS5003;66867;42.658;23.320;2023-02-22T06:02:00;58;47;
77699;PMS5003;66867;42.658;23.320;2023-02-22T06:03:02;54;45;
77699;PMS5003;66867;42.658;23.320;2023-02-22T06:04:00;54;46;
77699;PMS5003;66867;42.658;23.320;2023-02-22T06:05:00;55;46;
77699;PMS5003;66867;42.658;23.320;2023-02-22T06:06:00;58;47;
77699;PMS5003;66867;42.658;23.320;2023-02-22T06:07:00;57;47;
77699;PMS5003;66867;42.658;23.320;2023-02-22T06:08:01;57;47;
77699;PMS5003;66867;42.658;23.320;2023-02-22T06:09:00;61;49;
77699;PMS5003;66867;42.658;23.320;2023-02-22T06:10:00;62;50;
77699;PMS5003;66867;42.658;23.320;2023-02-22T06:11:00;62;50;
77699;PMS5003;66867;42.658;23.320;2023-02-22T06:12:00;62;51;
77699;PMS5003;66867;42.658;23.320;2023-02-22T06:13:01;67;52;
77699;PMS5003;66867;42.658;23.320;2023-02-22T06:14:00;57;47;
77699;PMS5003;66867;42.658;23.320;2023-02-22T06:15:00;57;47;
77699;PMS5003;66867;42.658;23.320;2023-02-22T06:16:01;56;47;
77699;PMS5003;66867;42.658;23.320;2023-02-22T06:17:00;56;47;
77699;PMS5003;66867;42.658;23.320;2023-02-22T06:18:01;59;47;
77699;PMS5003;66867;42.658;23.320;2023-02-22T06:19:00;56;47;
77699;PMS5003;66867;42.658;23.320;2023-02-22T06:20:00;56;47;
77699;PMS5003;66867;42.658;23.320;2023-02-22T06:21:00;53;44;
77699;PMS5003;66867;42.658;23.320;2023-02-22T06:22:00;57;46;
77699;PMS5003;66867;42.658;23.320;2023-02-22T06:23:00;63;47;
77699;PMS5003;66867;42.658;23.320;2023-02-22T06:24:01;58;47;
77699;PMS5003;66867;42.658;23.320;2023-02-22T06:25:02;55;46;
77699;PMS5003;66867;42.658;23.320;2023-02-22T06:26:00;59;47;
77699;PMS5003;66867;42.658;23.320;2023-02-22T06:27:01;61;50;
77699;PMS5003;66867;42.658;23.320;2023-02-22T06:28:01;59;49;
77699;PMS5003;66867;42.658;23.320;2023-02-22T06:29:00;64;52;
77699;PMS5003;66867;42.658;23.320;2023-02-22T06:30:00;65;52;
77699;PMS5003;66867;42.658;23.320;2023-02-22T06:31:00;60;48;
77699;PMS5003;66867;42.658;23.320;2023-02-22T06:32:00;63;49;
77699;PMS5003;66867;42.658;23.320;2023-02-22T06:33:00;62;52;
77699;PMS5003;66867;42.658;23.320;2023-02-22T06:34:00;64;52;
77699;PMS5003;66867;42.658;23.320;2023-02-22T06:35:00;65;52;
77699;PMS5003;66867;42.658;23.320;2023-02-22T06:36:00;66;52;
77699;PMS5003;66867;42.658;23.320;2023-02-22T06:37:00;63;50;
77699;PMS5003;66867;42.658;23.320;2023-02-22T06:38:00;63;51;
77699;PMS5003;66867;42.658;23.320;2023-02-22T06:44:00;53;44;
77699;PMS5003;66867;42.658;23.320;2023-02-22T06:45:00;47;40;
77699;PMS5003;66867;42.658;23.320;2023-02-22T06:46:00;52;42;
77699;PMS5003;66867;42.658;23.320;2023-02-22T06:47:00;51;42;
77699;PMS5003;66867;42.658;23.320;2023-02-22T06:48:00;47;40;
77699;PMS5003;66867;42.658;23.320;2023-02-22T06:49:00;53;44;
77699;PMS5003;66867;42.658;23.320;2023-02-22T06:50:00;53;44;
77699;PMS5003;66867;42.658;23.320;2023-02-22T06:51:00;55;45;
77699;PMS5003;66867;42.658;23.320;2023-02-22T06:52:03;50;43;
77699;PMS5003;66867;42.658;23.320;2023-02-22T06:53:00;51;43;
77699;PMS5003;66867;42.658;23.320;2023-02-22T06:54:00;53;44;
77699;PMS5003;66867;42.658;23.320;2023-02-22T06:55:00;53;44;
77699;PMS5003;66867;42.658;23.320;2023-02-22T06:56:01;49;41;
77699;PMS5003;66867;42.658;23.320;2023-02-22T06:57:00;55;46;
77699;PMS5003;66867;42.658;23.320;2023-02-22T06:58:02;52;44;
77699;PMS5003;66867;42.658;23.320;2023-02-22T06:59:00;55;46;
77699;PMS5003;66867;42.658;23.320;2023-02-22T07:00:00;52;43;
77699;PMS5003;66867;42.658;23.320;2023-02-22T07:01:00;48;41;
77699;PMS5003;66867;42.658;23.320;2023-02-22T07:02:00;50;41;
77699;PMS5003;66867;42.658;23.320;2023-02-22T07:03:02;46;39;
77699;PMS5003;66867;42.658;23.320;2023-02-22T07:04:01;50;42;